| time (UTC) | temp F | wind direction | speed MPH | gust MPH | rain 1hr in | rain 24hr in | rain mn in | humidity % | barometer mb |
| 20260503043056 | 56 | 231 | 0.0 | 0.0 | 0.00 | 0.00 | 0.00 | 40 | 1008.3 |
| 20260503041556 | 58 | 231 | 0.0 | 0.0 | 0.00 | 0.00 | 0.00 | 38 | 1008.1 |
| 20260503040111 | 59 | 231 | 0.0 | 0.0 | 0.00 | 0.00 | 0.00 | 35 | 1008.3 |
| 20260503034555 | 61 | 231 | 0.0 | 0.0 | 0.00 | 0.00 | 0.00 | 32 | 1008.3 |
| 20260503033054 | 63 | 231 | 0.0 | 0.0 | 0.00 | 0.00 | 0.00 | 31 | 1008.3 |
| 20260503031604 | 64 | 231 | 0.0 | 0.0 | 0.00 | 0.00 | 0.00 | 29 | 1008.1 |
| 20260503030054 | 66 | 231 | 0.0 | 0.0 | 0.00 | 0.00 | 0.00 | 27 | 1008.2 |
| 20260503024552 | 67 | 231 | 0.0 | 0.0 | 0.00 | 0.00 | 0.00 | 25 | 1008.2 |
| 20260503023053 | 68 | 231 | 0.0 | 0.0 | 0.00 | 0.00 | 0.00 | 23 | 1008.2 |
| 20260503021551 | 69 | 231 | 0.0 | 0.0 | 0.00 | 0.00 | 0.00 | 23 | 1008.3 |
| 20260503020053 | 69 | 232 | 0.0 | 0.0 | 0.00 | 0.00 | 0.00 | 21 | 1008.4 |
| 20260503014606 | 69 | 225 | 2.0 | 0.0 | 0.00 | 0.00 | 0.00 | 21 | 1008.4 |
| 20260503013047 | 70 | 246 | 1.0 | 0.0 | 0.00 | 0.00 | 0.00 | 23 | 1008.6 |
| 20260503011551 | 70 | 243 | 1.0 | 0.0 | 0.00 | 0.00 | 0.00 | 25 | 1008.7 |
| 20260503010044 | 70 | 200 | 1.0 | 0.0 | 0.00 | 0.00 | 0.00 | 25 | 1008.7 |
| 20260503004543 | 70 | 219 | 1.0 | 0.0 | 0.00 | 0.00 | 0.00 | 25 | 1008.9 |
| 20260503003041 | 71 | 232 | 3.0 | 0.0 | 0.00 | 0.00 | 0.00 | 25 | 1009.1 |
| 20260503001553 | 72 | 234 | 2.0 | 0.0 | 0.00 | 0.00 | 0.00 | 26 | 1009.3 |
| 20260503000037 | 72 | 218 | 2.0 | 0.0 | 0.00 | 0.00 | 0.00 | 26 | 1009.7 |
| 20260502234540 | 71 | 216 | 1.0 | 0.0 | 0.00 | 0.00 | 0.00 | 26 | 1010.1 |
| 20260502233033 | 72 | 205 | 3.0 | 0.0 | 0.00 | 0.00 | 0.00 | 26 | 1010.3 |
| 20260502231530 | 71 | 227 | 2.0 | 0.0 | 0.00 | 0.00 | 0.00 | 27 | 1010.5 |
| 20260502230033 | 71 | 221 | 3.0 | 0.0 | 0.00 | 0.00 | 0.00 | 26 | 1010.9 |
| 20260502224527 | 71 | 175 | 2.0 | 0.0 | 0.00 | 0.00 | 0.00 | 25 | 1011.3 |
| 20260502223023 | 70 | 217 | 2.0 | 0.0 | 0.00 | 0.00 | 0.00 | 26 | 1011.5 |
| 20260502221520 | 71 | 171 | 2.0 | 0.0 | 0.00 | 0.00 | 0.00 | 26 | 1012.0 |
| 20260502220018 | 70 | 194 | 2.0 | 0.0 | 0.00 | 0.00 | 0.00 | 26 | 1012.3 |
| 20260502214516 | 69 | 244 | 3.0 | 0.0 | 0.00 | 0.00 | 0.00 | 27 | 1012.5 |
| 20260502213014 | 70 | 200 | 3.0 | 0.0 | 0.00 | 0.00 | 0.00 | 26 | 1012.7 |
| 20260502211514 | 69 | 154 | 2.0 | 0.0 | 0.00 | 0.00 | 0.00 | 27 | 1012.9 |
| 20260502210010 | 69 | 225 | 2.0 | 0.0 | 0.00 | 0.00 | 0.00 | 26 | 1013.3 |
| 20260502204507 | 69 | 229 | 1.0 | 0.0 | 0.00 | 0.00 | 0.00 | 26 | 1013.4 |
| 20260502203005 | 68 | 223 | 2.0 | 0.0 | 0.00 | 0.00 | 0.00 | 27 | 1013.6 |
| 20260502201501 | 68 | 205 | 2.0 | 0.0 | 0.00 | 0.00 | 0.00 | 27 | 1014.1 |
| 20260502200059 | 67 | 216 | 2.0 | 0.0 | 0.00 | 0.00 | 0.00 | 28 | 1014.4 |
| 20260502194556 | 68 | 227 | 1.0 | 0.0 | 0.00 | 0.00 | 0.00 | 28 | 1014.5 |
| 20260502193102 | 67 | 244 | 1.0 | 0.0 | 0.00 | 0.00 | 0.00 | 28 | 1014.6 |
| 20260502191559 | 66 | 84 | 2.0 | 0.0 | 0.00 | 0.00 | 0.00 | 29 | 1014.9 |
| 20260502190104 | 66 | 229 | 1.0 | 0.0 | 0.00 | 0.00 | 0.00 | 30 | 1015.2 |
| 20260502184556 | 65 | 227 | 1.0 | 0.0 | 0.00 | 0.00 | 0.00 | 29 | 1015.4 |
| 20260502183101 | 65 | 219 | 1.0 | 0.0 | 0.00 | 0.00 | 0.00 | 29 | 1015.7 |
| 20260502181543 | 65 | 230 | 1.0 | 0.0 | 0.00 | 0.00 | 0.00 | 31 | 1016.0 |
| 20260502163013 | 60 | 211 | 1.0 | 0.0 | 0.00 | 0.00 | 0.00 | 38 | 1017.4 |
| 20260502161507 | 58 | 215 | 1.0 | 0.0 | 0.00 | 0.00 | 0.00 | 39 | 1017.5 |
| 20260502151549 | 52 | 195 | 1.0 | 0.0 | 0.00 | 0.00 | 0.00 | 53 | 1018.1 |
| 20260502123019 | 36 | 328 | 0.0 | 0.0 | 0.00 | 0.00 | 0.00 | 84 | 1018.2 |
| 20260502121512 | 36 | 328 | 0.0 | 0.0 | 0.00 | 0.00 | 0.00 | 84 | 1018.1 |
| 20260502114507 | 37 | 328 | 0.0 | 0.0 | 0.00 | 0.00 | 0.00 | 83 | 1017.9 |
| 20260502113005 | 37 | 328 | 0.0 | 0.0 | 0.00 | 0.00 | 0.00 | 82 | 1017.8 |
| 20260502111512 | 37 | 328 | 0.0 | 0.0 | 0.00 | 0.00 | 0.00 | 81 | 1017.8 |
| 20260502110004 | 37 | 328 | 0.0 | 0.0 | 0.00 | 0.00 | 0.00 | 80 | 1017.8 |
| 20260502104501 | 38 | 328 | 0.0 | 0.0 | 0.00 | 0.00 | 0.00 | 79 | 1017.8 |
| 20260502103059 | 38 | 328 | 0.0 | 0.0 | 0.00 | 0.00 | 0.00 | 79 | 1017.6 |
| 20260502101556 | 38 | 328 | 0.0 | 0.0 | 0.00 | 0.00 | 0.00 | 79 | 1017.6 |
| 20260502071533 | 43 | 328 | 0.0 | 0.0 | 0.00 | 0.00 | 0.00 | 73 | 1016.9 |
| 20260502070032 | 44 | 328 | 0.0 | 0.0 | 0.00 | 0.00 | 0.00 | 72 | 1016.8 |
| 20260502064527 | 45 | 328 | 0.0 | 0.0 | 0.00 | 0.00 | 0.00 | 70 | 1016.7 |
| 20260502063028 | 46 | 328 | 0.0 | 0.0 | 0.00 | 0.00 | 0.00 | 68 | 1016.7 |
| 20260502061522 | 46 | 328 | 0.0 | 0.0 | 0.00 | 0.00 | 0.00 | 68 | 1016.5 |
| 20260502060021 | 46 | 328 | 0.0 | 0.0 | 0.00 | 0.00 | 0.00 | 68 | 1016.5 |
| 20260502054520 | 47 | 328 | 0.0 | 0.0 | 0.00 | 0.00 | 0.00 | 69 | 1016.5 |
| 20260502053018 | 47 | 328 | 0.0 | 0.0 | 0.00 | 0.00 | 0.00 | 69 | 1016.3 |
| 20260502051516 | 47 | 328 | 0.0 | 0.0 | 0.00 | 0.00 | 0.00 | 68 | 1016.3 |
| 20260502050023 | 48 | 328 | 0.0 | 0.0 | 0.00 | 0.00 | 0.00 | 67 | 1016.2 |
| 20260502044514 | 48 | 328 | 0.0 | 0.0 | 0.00 | 0.00 | 0.00 | 66 | 1016.1 |